Current Weather

Phoenix-Mesa Gateway

Phoenix, Arizona (KIWA)

Report from: Monday, August 15, 2022 4:50 PM MST
Current time: Monday, August 15, 2022 5:35 PM MST

Nearby weather
Weather history
Weather forecast

Temperature37.0°C (98.6°F)
Heat index38.0°C (100.5°F)
Dew point17.0°C (62.6°F)
Winds 9 kts (4.6 m/s, 10.4 mph) West-Northwest (290°)
Visibility10 mi. (16.1 km)
Clouds Few clouds 10,000 ft. (3,048 m)
Altimeter29.78 in.Hg (1008 mB)
Relative humidity31 %
Density altitude2,912 ft. (888 m)
Remarks Towering cumulus clouds observed distant north south
Flight conditions Visual Meteorological Conditions
Raw dataKIWA 152350Z 29009KT 10SM FEW100 37/17 A2978 RMK TCU DSNT N-S
An error has occurred. This application may no longer respond until reloaded. Reload 🗙